createdAt,value
2023-04-18T00:00:11.193Z,7.00
2023-04-18T00:01:11.199Z,6.90
2023-04-18T00:02:11.291Z,7.30
2023-04-18T00:03:11.360Z,7.00
2023-04-18T00:04:11.553Z,6.70
2023-04-18T00:05:11.173Z,6.30
2023-04-18T00:06:11.196Z,7.20
2023-04-18T00:07:11.132Z,6.60
2023-04-18T00:08:11.129Z,6.90
2023-04-18T00:09:11.202Z,7.80
2023-04-18T00:10:11.098Z,7.20
2023-04-18T00:11:14.052Z,7.10
2023-04-18T00:12:11.087Z,6.60
2023-04-18T00:13:11.027Z,8.90
2023-04-18T00:14:11.102Z,6.70
2023-04-18T00:15:11.016Z,7.40
2023-04-18T00:16:13.525Z,9.00
2023-04-18T00:17:11.227Z,8.70
2023-04-18T00:18:11.009Z,7.20
2023-04-18T00:19:10.956Z,8.40
2023-04-18T00:20:10.982Z,6.80
2023-04-18T00:21:10.962Z,7.00
2023-04-18T00:22:10.989Z,7.00
2023-04-18T00:23:12.167Z,7.10
2023-04-18T00:24:10.949Z,7.10
2023-04-18T00:25:10.880Z,7.60
2023-04-18T00:26:10.918Z,7.10
2023-04-18T00:27:10.899Z,6.90
2023-04-18T00:28:10.944Z,6.70
2023-04-18T00:29:10.867Z,6.80
2023-04-18T00:30:10.868Z,6.90
2023-04-18T00:31:10.882Z,7.00
2023-04-18T00:32:10.818Z,7.00
2023-04-18T00:33:10.793Z,8.30
2023-04-18T00:34:10.887Z,6.90
2023-04-18T00:35:10.822Z,6.40
2023-04-18T00:36:10.797Z,7.20
2023-04-18T00:37:10.766Z,7.00
2023-04-18T00:38:10.859Z,6.80
2023-04-18T00:39:10.730Z,6.20
2023-04-18T00:40:10.752Z,5.90
2023-04-18T00:41:10.699Z,6.60
2023-04-18T00:42:10.733Z,6.00
2023-04-18T00:43:10.676Z,6.30
2023-04-18T00:44:10.706Z,6.10
2023-04-18T00:45:10.680Z,6.60
2023-04-18T00:46:10.714Z,6.40
2023-04-18T00:47:10.651Z,6.10
2023-04-18T00:48:10.631Z,6.30
2023-04-18T00:49:10.690Z,5.90
2023-04-18T00:50:10.646Z,6.70
2023-04-18T00:51:10.597Z,5.80
2023-04-18T00:52:10.614Z,6.00
2023-04-18T00:53:10.594Z,6.00
2023-04-18T00:54:10.570Z,5.80
2023-04-18T00:55:10.659Z,6.10
2023-04-18T00:56:10.573Z,5.80
2023-04-18T00:57:10.526Z,6.00
2023-04-18T00:58:10.552Z,6.10
2023-04-18T00:59:10.523Z,6.00
2023-04-18T01:00:10.512Z,6.10
2023-04-18T01:01:10.895Z,6.20
2023-04-18T01:02:10.529Z,5.50
2023-04-18T01:03:10.735Z,5.80
2023-04-18T01:04:10.539Z,5.70
2023-04-18T01:05:10.453Z,6.20
2023-04-18T01:06:10.464Z,6.20
2023-04-18T01:07:10.427Z,5.40
2023-04-18T01:08:10.428Z,6.90
2023-04-18T01:09:10.407Z,5.50
2023-04-18T01:10:10.398Z,5.70
2023-04-18T01:11:10.425Z,5.80
2023-04-18T01:12:10.379Z,5.40
2023-04-18T01:13:10.352Z,5.40
2023-04-18T01:14:10.356Z,5.70
2023-04-18T01:15:10.326Z,5.60
2023-04-18T01:16:10.817Z,5.30
2023-04-18T01:17:10.307Z,5.70
2023-04-18T01:18:10.312Z,6.10
2023-04-18T01:19:10.284Z,5.80
2023-04-18T01:20:10.266Z,5.70
2023-04-18T01:21:10.251Z,5.60
2023-04-18T01:22:10.232Z,6.00
2023-04-18T01:23:10.269Z,6.00
2023-04-18T01:24:10.330Z,6.00
2023-04-18T01:25:10.208Z,6.10
2023-04-18T01:26:10.225Z,5.70
2023-04-18T01:27:10.191Z,5.70
2023-04-18T01:28:10.192Z,6.30
2023-04-18T01:29:10.193Z,5.90
2023-04-18T01:30:10.142Z,5.60
2023-04-18T01:31:10.163Z,5.50
2023-04-18T01:32:10.151Z,6.20
2023-04-18T01:33:10.119Z,5.70
2023-04-18T01:34:10.103Z,5.40
2023-04-18T01:35:10.115Z,6.00
2023-04-18T01:36:10.113Z,5.80
2023-04-18T01:37:10.076Z,5.70
2023-04-18T01:38:10.045Z,6.00
2023-04-18T01:39:10.044Z,5.60
2023-04-18T01:40:10.032Z,5.70
2023-04-18T01:41:10.026Z,6.10
2023-04-18T01:42:10.043Z,6.40
2023-04-18T01:43:10.005Z,5.70
2023-04-18T01:44:10.018Z,6.00
2023-04-18T01:45:09.954Z,5.70
2023-04-18T01:46:10.036Z,5.60
2023-04-18T01:47:09.961Z,5.50
2023-04-18T01:48:09.976Z,5.70
2023-04-18T01:49:09.966Z,5.30
2023-04-18T01:50:09.990Z,5.70
2023-04-18T01:51:09.913Z,5.90
2023-04-18T01:52:09.926Z,5.70
2023-04-18T01:53:09.883Z,5.70
2023-04-18T01:54:09.864Z,5.60
2023-04-18T01:55:09.936Z,5.90
2023-04-18T01:56:09.879Z,6.20
2023-04-18T01:57:17.197Z,6.00
2023-04-18T01:58:09.848Z,5.50
2023-04-18T01:59:09.834Z,5.60
2023-04-18T02:00:09.791Z,5.50
2023-04-18T02:01:09.818Z,6.00
2023-04-18T02:02:09.849Z,5.40
2023-04-18T02:03:09.897Z,5.30
2023-04-18T02:04:09.789Z,5.30
2023-04-18T02:05:09.768Z,5.70
2023-04-18T02:06:09.714Z,5.60
2023-04-18T02:07:09.725Z,5.10
2023-04-18T02:08:09.738Z,5.20
2023-04-18T02:09:09.672Z,5.50
2023-04-18T02:10:09.674Z,5.00
2023-04-18T02:11:09.655Z,5.10
2023-04-18T02:12:09.658Z,5.10
2023-04-18T02:13:11.337Z,4.90
2023-04-18T02:14:09.655Z,6.30
2023-04-18T02:15:09.617Z,5.10
2023-04-18T02:16:09.627Z,5.20
2023-04-18T02:17:09.587Z,5.20
2023-04-18T02:18:09.631Z,4.70
2023-04-18T02:19:09.583Z,5.50
2023-04-18T02:20:09.594Z,5.00
2023-04-18T02:21:09.604Z,5.00
2023-04-18T02:22:09.594Z,5.00
2023-04-18T02:23:09.519Z,5.10
2023-04-18T02:24:09.538Z,4.60
2023-04-18T02:25:09.489Z,4.70
2023-04-18T02:26:09.516Z,5.40
2023-04-18T02:27:09.472Z,4.80
2023-04-18T02:28:09.497Z,5.30
2023-04-18T02:29:09.501Z,4.80
2023-04-18T02:30:09.443Z,5.00
2023-04-18T02:31:09.429Z,5.00
2023-04-18T02:32:09.517Z,4.90
2023-04-18T02:33:09.397Z,4.50
2023-04-18T02:34:09.438Z,4.60
2023-04-18T02:35:09.469Z,5.00
2023-04-18T02:36:09.368Z,4.50
2023-04-18T02:37:09.397Z,4.90
2023-04-18T02:38:09.348Z,4.90
2023-04-18T02:39:09.374Z,5.10
2023-04-18T02:40:09.367Z,5.30
2023-04-18T02:41:09.319Z,4.60
2023-04-18T02:42:09.304Z,4.90
2023-04-18T02:43:09.331Z,4.70
2023-04-18T02:44:09.273Z,4.60
2023-04-18T02:45:09.275Z,5.00
2023-04-18T02:46:09.285Z,4.90
2023-04-18T02:47:09.272Z,4.60
2023-04-18T02:48:09.303Z,4.50
2023-04-18T02:49:09.226Z,4.60
2023-04-18T02:50:09.238Z,5.10
2023-04-18T02:51:09.256Z,5.50
2023-04-18T02:52:09.202Z,4.90
2023-04-18T02:53:09.201Z,4.90
2023-04-18T02:54:09.155Z,4.60
2023-04-18T02:55:09.173Z,4.40
2023-04-18T02:56:09.155Z,4.90
2023-04-18T02:57:09.187Z,4.90
2023-04-18T02:58:09.143Z,4.40
2023-04-18T02:59:09.113Z,4.60
2023-04-18T03:00:09.086Z,4.60
2023-04-18T03:01:09.190Z,4.60
2023-04-18T03:02:09.137Z,4.70
2023-04-18T03:03:09.103Z,4.90
2023-04-18T03:04:09.067Z,4.70
2023-04-18T03:05:09.099Z,4.90
2023-04-18T03:06:09.049Z,4.50
2023-04-18T03:07:09.299Z,4.80
2023-04-18T03:08:09.018Z,4.30
2023-04-18T03:09:09.025Z,4.40
2023-04-18T03:10:08.967Z,4.50
2023-04-18T03:11:08.994Z,4.80
2023-04-18T03:12:08.949Z,5.10
2023-04-18T03:13:08.958Z,5.10
2023-04-18T03:14:08.945Z,5.00
2023-04-18T03:15:09.113Z,4.10
2023-04-18T03:16:08.937Z,4.40
2023-04-18T03:17:08.924Z,4.80
2023-04-18T03:18:08.973Z,4.30
2023-04-18T03:19:08.904Z,4.50
2023-04-18T03:20:08.877Z,4.20
2023-04-18T03:21:08.852Z,4.80
2023-04-18T03:22:08.836Z,4.00
2023-04-18T03:23:08.873Z,5.50
2023-04-18T03:24:10.826Z,5.00
2023-04-18T03:25:08.799Z,4.70
2023-04-18T03:26:08.814Z,4.40
2023-04-18T03:27:08.824Z,4.80
2023-04-18T03:28:08.785Z,4.40
2023-04-18T03:29:08.788Z,5.30
2023-04-18T03:30:08.742Z,4.60
2023-04-18T03:31:08.797Z,4.80
2023-04-18T03:32:08.755Z,4.50
2023-04-18T03:33:08.715Z,4.90
2023-04-18T03:34:08.692Z,5.20
2023-04-18T03:35:08.718Z,4.80
2023-04-18T03:36:08.666Z,4.40
2023-04-18T03:37:08.766Z,4.50
2023-04-18T03:38:08.642Z,5.20
2023-04-18T03:39:08.655Z,5.20
2023-04-18T03:40:08.622Z,4.90
2023-04-18T03:41:08.630Z,4.90
2023-04-18T03:42:08.597Z,4.90
2023-04-18T03:43:08.820Z,5.30
2023-04-18T03:44:08.604Z,5.30
2023-04-18T03:45:08.614Z,4.90
2023-04-18T03:46:08.631Z,4.80
2023-04-18T03:47:08.552Z,5.00
2023-04-18T03:48:08.530Z,7.40
2023-04-18T03:49:08.578Z,5.50
2023-04-18T03:50:08.530Z,4.70
2023-04-18T03:51:08.509Z,5.40
2023-04-18T03:52:08.532Z,6.40
2023-04-18T03:53:08.494Z,5.60
2023-04-18T03:54:08.489Z,4.80
2023-04-18T03:55:08.491Z,5.90
2023-04-18T03:56:08.436Z,5.20
2023-04-18T03:57:08.496Z,5.10
2023-04-18T03:58:08.461Z,5.30
2023-04-18T03:59:08.442Z,5.20
2023-04-18T04:00:08.396Z,5.20
2023-04-18T04:01:08.410Z,8.80
2023-04-18T04:02:08.671Z,5.10
2023-04-18T04:03:08.612Z,5.30
2023-04-18T04:04:08.456Z,5.90
2023-04-18T04:05:08.450Z,5.20
2023-04-18T04:06:08.332Z,5.60
2023-04-18T04:07:08.339Z,6.70
2023-04-18T04:08:08.395Z,5.70
2023-04-18T04:09:08.315Z,5.90
2023-04-18T04:10:08.306Z,5.40
2023-04-18T04:11:08.310Z,7.50
2023-04-18T04:12:08.293Z,5.60
2023-04-18T04:13:08.255Z,5.80
2023-04-18T04:14:08.323Z,5.30
2023-04-18T04:15:08.282Z,6.00
2023-04-18T04:16:08.239Z,6.20
2023-04-18T04:17:08.210Z,5.70
2023-04-18T04:18:08.204Z,5.40
2023-04-18T04:19:08.514Z,5.80
2023-04-18T04:20:08.169Z,5.30
2023-04-18T04:21:08.178Z,5.40
2023-04-18T04:22:08.147Z,5.80
2023-04-18T04:23:08.178Z,5.40
2023-04-18T04:24:08.194Z,5.80
2023-04-18T04:25:08.226Z,5.60
2023-04-18T04:26:08.131Z,5.90
2023-04-18T04:27:08.156Z,6.00
2023-04-18T04:28:08.080Z,6.20
2023-04-18T04:29:08.095Z,6.10
2023-04-18T04:30:08.084Z,5.80
2023-04-18T04:31:08.230Z,6.00
2023-04-18T04:32:08.367Z,6.20
2023-04-18T04:33:08.057Z,6.10
2023-04-18T04:34:08.049Z,6.10
2023-04-18T04:35:08.001Z,6.30
2023-04-18T04:36:08.013Z,6.10
2023-04-18T04:37:08.008Z,6.60
2023-04-18T04:38:07.981Z,6.20
2023-04-18T04:39:07.958Z,6.30
2023-04-18T04:40:07.983Z,6.30
2023-04-18T04:41:08.022Z,6.00
2023-04-18T04:42:07.936Z,6.10
2023-04-18T04:43:07.919Z,6.40
2023-04-18T04:44:07.911Z,6.60
2023-04-18T04:45:07.930Z,6.40
2023-04-18T04:46:07.953Z,5.90
2023-04-18T04:47:07.891Z,6.50
2023-04-18T04:48:07.923Z,6.60
2023-04-18T04:49:07.843Z,6.50
2023-04-18T04:50:07.827Z,6.40
2023-04-18T04:51:07.848Z,6.60
2023-04-18T04:52:07.795Z,6.80
2023-04-18T04:53:07.825Z,6.20
2023-04-18T04:54:07.789Z,6.60
2023-04-18T04:55:07.824Z,6.50
2023-04-18T04:56:07.797Z,6.60
2023-04-18T04:57:07.751Z,7.00
2023-04-18T04:58:07.751Z,6.90
2023-04-18T04:59:07.763Z,6.70
2023-04-18T05:00:07.717Z,6.20
2023-04-18T05:01:07.772Z,6.60
2023-04-18T05:02:07.783Z,6.30
2023-04-18T05:03:07.754Z,6.60
2023-04-18T05:04:07.770Z,7.20
2023-04-18T05:05:07.680Z,7.00
2023-04-18T05:06:07.686Z,6.90
2023-04-18T05:07:07.675Z,6.30
2023-04-18T05:08:07.661Z,10.00
2023-04-18T05:09:07.814Z,8.10
2023-04-18T05:10:07.597Z,9.30
2023-04-18T05:11:07.583Z,6.80
2023-04-18T05:12:07.573Z,14.40
2023-04-18T05:13:07.617Z,18.70
2023-04-18T05:14:07.591Z,9.60
2023-04-18T05:15:07.532Z,7.10
2023-04-18T05:16:07.536Z,7.10
2023-04-18T05:17:07.542Z,6.90
2023-04-18T05:18:07.578Z,8.20
2023-04-18T05:19:07.542Z,7.10
2023-04-18T05:20:07.510Z,10.20
2023-04-18T05:21:07.515Z,7.40
2023-04-18T05:22:07.448Z,8.50
2023-04-18T05:23:07.470Z,8.10
2023-04-18T05:24:07.449Z,7.40
2023-04-18T05:25:07.495Z,8.60
2023-04-18T05:26:08.171Z,7.80
2023-04-18T05:27:07.426Z,8.10
2023-04-18T05:28:07.405Z,7.40
2023-04-18T05:29:09.564Z,8.20
2023-04-18T05:30:09.810Z,7.70
2023-04-18T05:31:07.638Z,8.50
2023-04-18T05:32:07.335Z,7.90
2023-04-18T05:33:07.413Z,8.80
2023-04-18T05:34:07.311Z,9.10
2023-04-18T05:35:07.332Z,8.10
2023-04-18T05:36:07.317Z,11.80
2023-04-18T05:37:07.321Z,8.30
2023-04-18T05:38:07.270Z,8.60
2023-04-18T05:39:07.278Z,15.50
2023-04-18T05:40:07.241Z,14.80
2023-04-18T05:41:07.301Z,10.00
2023-04-18T05:42:07.248Z,10.00
2023-04-18T05:43:07.243Z,10.30
2023-04-18T05:44:07.190Z,13.00
2023-04-18T05:45:07.219Z,14.00
2023-04-18T05:46:07.217Z,14.90
2023-04-18T05:47:07.222Z,8.50
2023-04-18T05:48:09.175Z,8.40
2023-04-18T05:49:07.170Z,8.90
2023-04-18T05:50:07.149Z,8.70
2023-04-18T05:51:07.147Z,8.40
2023-04-18T05:52:07.127Z,9.30
2023-04-18T05:53:07.101Z,8.80
2023-04-18T05:54:07.102Z,8.70
2023-04-18T05:55:07.103Z,9.40
2023-04-18T05:56:07.093Z,10.30
2023-04-18T05:57:07.116Z,12.20
2023-04-18T05:58:07.032Z,11.60
2023-04-18T05:59:07.042Z,9.30
2023-04-18T06:00:07.030Z,10.80
2023-04-18T06:01:07.036Z,9.50
2023-04-18T06:02:07.038Z,8.80
2023-04-18T06:03:09.278Z,9.70
2023-04-18T06:04:07.149Z,8.80
2023-04-18T06:05:07.070Z,10.00
2023-04-18T06:06:06.932Z,9.10
2023-04-18T06:07:06.935Z,9.50
2023-04-18T06:08:06.954Z,15.10
2023-04-18T06:09:06.912Z,12.00
2023-04-18T06:10:06.934Z,10.90
2023-04-18T06:11:06.917Z,8.00
2023-04-18T06:12:06.893Z,9.50
2023-04-18T06:13:06.894Z,8.70
2023-04-18T06:14:06.955Z,8.50
2023-04-18T06:15:06.871Z,8.40
2023-04-18T06:16:06.878Z,9.40
2023-04-18T06:17:06.841Z,8.30
2023-04-18T06:18:06.880Z,9.30
2023-04-18T06:19:06.865Z,10.60
2023-04-18T06:20:06.798Z,8.60
2023-04-18T06:21:06.789Z,8.00
2023-04-18T06:22:06.801Z,8.20
2023-04-18T06:23:06.746Z,8.40
2023-04-18T06:24:06.732Z,8.60
2023-04-18T06:25:06.752Z,9.20
2023-04-18T06:26:06.739Z,8.00
2023-04-18T06:27:07.384Z,9.10
2023-04-18T06:28:06.680Z,8.20
2023-04-18T06:29:06.704Z,7.70
2023-04-18T06:30:06.703Z,8.30
2023-04-18T06:31:06.697Z,7.90
2023-04-18T06:32:06.633Z,7.90
2023-04-18T06:33:06.695Z,8.00
2023-04-18T06:34:06.619Z,9.40
2023-04-18T06:35:06.659Z,8.40
2023-04-18T06:36:06.611Z,8.80
2023-04-18T06:37:06.616Z,8.00
2023-04-18T06:38:06.604Z,7.70
2023-04-18T06:39:06.581Z,9.20
2023-04-18T06:40:06.538Z,7.80
2023-04-18T06:41:06.551Z,8.70
2023-04-18T06:42:06.515Z,11.60
2023-04-18T06:43:06.513Z,9.40
2023-04-18T06:44:06.536Z,8.60
2023-04-18T06:45:06.521Z,10.00
2023-04-18T06:46:06.592Z,9.20
2023-04-18T06:47:06.477Z,9.30
2023-04-18T06:48:06.468Z,9.40
2023-04-18T06:49:06.507Z,8.20
2023-04-18T06:50:06.432Z,9.90
2023-04-18T06:51:06.478Z,8.70
2023-04-18T06:52:06.415Z,9.40
2023-04-18T06:53:06.403Z,9.80
2023-04-18T06:54:06.399Z,11.20
2023-04-18T06:55:06.392Z,10.10
2023-04-18T06:56:06.367Z,11.40
2023-04-18T06:57:06.369Z,10.80
2023-04-18T06:58:06.360Z,10.30
2023-04-18T06:59:06.356Z,7.90
2023-04-18T07:00:06.317Z,8.70
2023-04-18T07:01:06.349Z,10.50
2023-04-18T07:02:06.378Z,10.40
2023-04-18T07:03:07.626Z,9.50
2023-04-18T07:04:06.319Z,8.70
2023-04-18T07:05:06.295Z,8.30
2023-04-18T07:06:06.283Z,8.30
2023-04-18T07:07:06.227Z,11.50
2023-04-18T07:08:06.248Z,11.30
2023-04-18T07:09:06.213Z,12.40
2023-04-18T07:10:06.204Z,12.50
2023-04-18T07:11:06.177Z,11.90
2023-04-18T07:12:06.185Z,9.30
2023-04-18T07:13:06.183Z,8.30
2023-04-18T07:14:06.183Z,9.70
2023-04-18T07:15:06.129Z,9.80
2023-04-18T07:16:06.169Z,11.20
2023-04-18T07:17:06.222Z,9.80
2023-04-18T07:18:06.171Z,18.00
2023-04-18T07:19:06.081Z,9.10
2023-04-18T07:20:06.141Z,10.70
2023-04-18T07:21:06.088Z,9.90
2023-04-18T07:22:06.068Z,12.70
2023-04-18T07:23:06.038Z,10.00
2023-04-18T07:24:06.082Z,9.80
2023-04-18T07:25:06.076Z,9.50
2023-04-18T07:26:06.048Z,9.40
2023-04-18T07:27:05.990Z,9.30
2023-04-18T07:28:05.983Z,9.40
2023-04-18T07:29:05.996Z,9.60
2023-04-18T07:30:06.001Z,10.00
2023-04-18T07:31:06.014Z,9.30
2023-04-18T07:32:08.094Z,10.50
2023-04-18T07:33:05.983Z,9.40
2023-04-18T07:34:05.920Z,10.70
2023-04-18T07:35:05.902Z,9.90
2023-04-18T07:36:05.945Z,9.70
2023-04-18T07:37:05.905Z,9.50
2023-04-18T07:38:05.890Z,9.40
2023-04-18T07:39:05.847Z,9.40
2023-04-18T07:40:05.886Z,10.20
2023-04-18T07:41:05.855Z,9.50
2023-04-18T07:42:05.840Z,9.80
2023-04-18T07:43:05.805Z,10.00
2023-04-18T07:44:05.810Z,10.00
2023-04-18T07:45:05.810Z,10.70
2023-04-18T07:46:05.789Z,9.60
2023-04-18T07:47:05.836Z,9.80
2023-04-18T07:48:05.823Z,10.00
2023-04-18T07:49:05.776Z,10.10
2023-04-18T07:50:05.758Z,10.80
2023-04-18T07:51:05.742Z,10.40
2023-04-18T07:52:05.755Z,10.50
2023-04-18T07:53:05.752Z,10.70
2023-04-18T07:54:05.705Z,10.50
2023-04-18T07:55:05.698Z,11.40
2023-04-18T07:56:05.663Z,9.40
2023-04-18T07:57:05.664Z,10.10
2023-04-18T07:58:12.680Z,9.80
2023-04-18T07:59:05.668Z,10.70
2023-04-18T08:00:05.659Z,10.40
2023-04-18T08:01:05.614Z,11.00
2023-04-18T08:02:05.792Z,9.60
2023-04-18T08:03:05.721Z,10.90
2023-04-18T08:04:05.764Z,9.20
2023-04-18T08:05:05.683Z,10.30
2023-04-18T08:06:05.563Z,10.50
2023-04-18T08:07:05.569Z,9.50
2023-04-18T08:08:05.616Z,9.50
2023-04-18T08:09:05.565Z,14.40
2023-04-18T08:10:05.520Z,10.40
2023-04-18T08:11:05.509Z,10.30
2023-04-18T08:12:05.531Z,9.20
2023-04-18T08:13:05.554Z,8.90
2023-04-18T08:14:05.501Z,9.50
2023-04-18T08:15:05.459Z,9.00
2023-04-18T08:16:05.458Z,9.40
2023-04-18T08:17:05.459Z,9.00
2023-04-18T08:18:05.523Z,9.70
2023-04-18T08:19:05.460Z,10.00
2023-04-18T08:20:05.428Z,8.90
2023-04-18T08:21:05.405Z,10.90
2023-04-18T08:22:05.416Z,9.00
2023-04-18T08:23:09.504Z,10.30
2023-04-18T08:24:06.412Z,9.70
2023-04-18T08:25:05.916Z,10.50
2023-04-18T08:26:05.396Z,8.40
2023-04-18T08:27:05.338Z,9.30
2023-04-18T08:28:05.342Z,8.80
2023-04-18T08:29:05.294Z,8.70
2023-04-18T08:30:05.393Z,8.30
2023-04-18T08:31:05.271Z,10.80
2023-04-18T08:32:05.374Z,8.50
2023-04-18T08:33:05.307Z,9.50
2023-04-18T08:34:05.401Z,8.60
2023-04-18T08:35:05.267Z,9.30
2023-04-18T08:36:05.258Z,9.00
2023-04-18T08:37:05.200Z,9.60
2023-04-18T08:38:05.193Z,9.50
2023-04-18T08:39:05.182Z,9.50
2023-04-18T08:40:05.219Z,9.20
2023-04-18T08:41:05.171Z,8.90
2023-04-18T08:42:05.161Z,9.60
2023-04-18T08:43:05.162Z,10.20
2023-04-18T08:44:05.172Z,8.90
2023-04-18T08:45:05.105Z,10.00
2023-04-18T08:46:05.196Z,8.60
2023-04-18T08:47:05.121Z,9.20
2023-04-18T08:48:05.179Z,8.50
2023-04-18T08:49:05.101Z,9.10
2023-04-18T08:50:07.768Z,9.80
2023-04-18T08:51:05.056Z,8.30
2023-04-18T08:52:05.045Z,10.30
2023-04-18T08:53:05.041Z,8.40
2023-04-18T08:54:05.066Z,9.60
2023-04-18T08:55:04.984Z,10.00
2023-04-18T08:56:04.983Z,9.10
2023-04-18T08:57:04.989Z,8.90
2023-04-18T08:58:05.014Z,11.70
2023-04-18T08:59:04.973Z,9.90
2023-04-18T09:00:04.965Z,9.20
2023-04-18T09:01:04.999Z,10.40
2023-04-18T09:02:04.987Z,10.00
2023-04-18T09:03:05.118Z,9.20
2023-04-18T09:04:04.971Z,8.90
2023-04-18T09:05:04.867Z,9.50
2023-04-18T09:06:04.907Z,10.90
2023-04-18T09:07:04.897Z,9.80
2023-04-18T09:08:04.846Z,9.30
2023-04-18T09:09:04.874Z,9.40
2023-04-18T09:10:04.829Z,10.90
2023-04-18T09:11:04.822Z,8.90
2023-04-18T09:12:04.863Z,9.90
2023-04-18T09:13:04.790Z,10.50
2023-04-18T09:14:04.773Z,10.60
2023-04-18T09:15:04.770Z,9.60
2023-04-18T09:16:04.797Z,9.70
2023-04-18T09:17:04.800Z,10.10
2023-04-18T09:18:04.738Z,11.00
2023-04-18T09:19:06.745Z,11.30
2023-04-18T09:20:04.736Z,10.40
2023-04-18T09:21:04.713Z,11.20
2023-04-18T09:22:04.754Z,11.20
2023-04-18T09:23:04.715Z,10.60
2023-04-18T09:24:04.666Z,10.50
2023-04-18T09:25:04.652Z,10.80
2023-04-18T09:26:04.703Z,11.10
2023-04-18T09:27:04.658Z,13.10
2023-04-18T09:28:04.624Z,10.60
2023-04-18T09:29:04.628Z,10.10
2023-04-18T09:30:04.621Z,10.80
2023-04-18T09:31:04.679Z,11.10
2023-04-18T09:32:04.624Z,10.10
2023-04-18T09:33:04.710Z,9.70
2023-04-18T09:34:04.575Z,12.60
2023-04-18T09:35:04.990Z,11.80
2023-04-18T09:36:04.543Z,11.30
2023-04-18T09:37:04.592Z,10.20
2023-04-18T09:38:04.505Z,12.20
2023-04-18T09:39:04.501Z,12.00
2023-04-18T09:40:04.512Z,12.40
2023-04-18T09:41:04.458Z,11.00
2023-04-18T09:42:04.548Z,9.80
2023-04-18T09:43:04.517Z,10.20
2023-04-18T09:44:04.435Z,11.50
2023-04-18T09:45:04.412Z,10.70
2023-04-18T09:46:04.462Z,10.90
2023-04-18T09:47:04.430Z,9.60
2023-04-18T09:48:04.474Z,10.10
2023-04-18T09:49:04.369Z,11.30
2023-04-18T09:50:04.369Z,10.30
2023-04-18T09:51:04.394Z,10.80
2023-04-18T09:52:04.411Z,10.10
2023-04-18T09:53:04.413Z,9.90
2023-04-18T09:54:04.365Z,11.00
2023-04-18T09:55:04.296Z,12.00
2023-04-18T09:56:04.302Z,9.20
2023-04-18T09:57:04.274Z,10.60
2023-04-18T09:58:04.333Z,10.40
2023-04-18T09:59:04.249Z,12.20
2023-04-18T10:00:04.246Z,10.40
2023-04-18T10:01:04.303Z,9.50
2023-04-18T10:02:04.291Z,10.40
2023-04-18T10:03:04.278Z,10.30
2023-04-18T10:04:04.282Z,9.90
2023-04-18T10:05:04.301Z,11.40
2023-04-18T10:06:04.236Z,11.00
2023-04-18T10:07:04.181Z,13.40
2023-04-18T10:08:04.168Z,9.80
2023-04-18T10:09:04.140Z,11.20
2023-04-18T10:10:04.230Z,11.10
2023-04-18T10:11:04.121Z,11.00
2023-04-18T10:12:04.108Z,10.80
2023-04-18T10:13:04.134Z,10.30
2023-04-18T10:14:04.110Z,11.70
2023-04-18T10:15:04.102Z,10.50
2023-04-18T10:16:04.133Z,9.50
2023-04-18T10:17:04.033Z,9.90
2023-04-18T10:18:06.196Z,11.50
2023-04-18T10:19:04.070Z,11.00
2023-04-18T10:20:04.047Z,10.90
2023-04-18T10:21:04.065Z,10.10
2023-04-18T10:22:03.995Z,10.30
2023-04-18T10:23:03.994Z,9.30
2023-04-18T10:24:04.035Z,10.00
2023-04-18T10:25:03.962Z,9.20
2023-04-18T10:26:03.945Z,9.40
2023-04-18T10:27:03.943Z,10.70
2023-04-18T10:28:03.940Z,9.70
2023-04-18T10:29:03.889Z,10.10
2023-04-18T10:30:03.900Z,10.10
2023-04-18T10:31:04.011Z,10.20
2023-04-18T10:32:03.888Z,10.50
2023-04-18T10:33:03.903Z,11.50
2023-04-18T10:34:05.641Z,10.00
2023-04-18T10:35:03.827Z,10.20
2023-04-18T10:36:03.938Z,9.20
2023-04-18T10:37:03.826Z,9.10
2023-04-18T10:38:03.803Z,9.80
2023-04-18T10:39:03.858Z,10.10
2023-04-18T10:40:03.798Z,8.80
2023-04-18T10:41:03.783Z,9.50
2023-04-18T10:42:03.772Z,9.30
2023-04-18T10:43:03.778Z,10.30
2023-04-18T10:44:03.756Z,9.60
2023-04-18T10:45:03.771Z,9.40
2023-04-18T10:46:03.764Z,9.20
2023-04-18T10:47:03.734Z,9.20
2023-04-18T10:48:03.692Z,10.40
2023-04-18T10:49:03.705Z,9.90
2023-04-18T10:50:06.292Z,10.00
2023-04-18T10:51:03.703Z,9.10
2023-04-18T10:52:03.687Z,9.20
2023-04-18T10:53:03.655Z,8.90
2023-04-18T10:54:03.647Z,10.00
2023-04-18T10:55:03.598Z,10.10
2023-04-18T10:56:03.602Z,9.40
2023-04-18T10:57:03.599Z,12.10
2023-04-18T10:58:03.579Z,11.00
2023-04-18T10:59:03.549Z,12.00
2023-04-18T11:00:03.575Z,9.80
2023-04-18T11:01:03.584Z,9.60
2023-04-18T11:02:03.582Z,9.10
2023-04-18T11:03:03.713Z,9.80
2023-04-18T11:04:03.610Z,10.50
2023-04-18T11:05:03.530Z,9.40
2023-04-18T11:06:03.494Z,9.00
2023-04-18T11:07:03.506Z,9.40
2023-04-18T11:08:03.471Z,11.00
2023-04-18T11:09:03.480Z,9.30
2023-04-18T11:10:03.453Z,9.30
2023-04-18T11:11:03.436Z,9.20
2023-04-18T11:12:03.416Z,9.10
2023-04-18T11:13:03.432Z,10.30
2023-04-18T11:14:03.414Z,11.00
2023-04-18T11:15:03.404Z,9.50
2023-04-18T11:16:03.456Z,10.40
2023-04-18T11:17:03.387Z,9.10
2023-04-18T11:18:03.390Z,11.10
2023-04-18T11:19:03.369Z,10.10
2023-04-18T11:20:13.271Z,11.80
2023-04-18T11:21:03.373Z,10.10
2023-04-18T11:22:03.285Z,11.80
2023-04-18T11:23:03.313Z,11.60
2023-04-18T11:24:03.293Z,10.10
2023-04-18T11:25:03.320Z,10.60
2023-04-18T11:26:03.304Z,11.60
2023-04-18T11:27:03.240Z,10.00
2023-04-18T11:28:03.230Z,10.10
2023-04-18T11:29:03.247Z,10.10
2023-04-18T11:30:03.264Z,11.00
2023-04-18T11:31:03.278Z,9.40
2023-04-18T11:32:03.252Z,9.70
2023-04-18T11:33:03.279Z,10.30
2023-04-18T11:34:03.184Z,10.10
2023-04-18T11:35:03.154Z,10.00
2023-04-18T11:36:03.186Z,9.70
2023-04-18T11:37:03.178Z,11.00
2023-04-18T11:38:03.098Z,10.50
2023-04-18T11:39:03.104Z,9.50
2023-04-18T11:40:03.129Z,11.10
2023-04-18T11:41:03.172Z,10.90
2023-04-18T11:42:03.114Z,11.40
2023-04-18T11:43:03.082Z,9.60
2023-04-18T11:44:03.071Z,10.10
2023-04-18T11:45:03.063Z,10.20
2023-04-18T11:46:03.019Z,10.30
2023-04-18T11:47:03.058Z,9.20
2023-04-18T11:48:03.046Z,9.90
2023-04-18T11:49:03.041Z,10.80
2023-04-18T11:50:02.998Z,9.10
2023-04-18T11:51:02.985Z,10.00
2023-04-18T11:52:02.981Z,10.00
2023-04-18T11:53:02.964Z,9.50
2023-04-18T11:54:02.946Z,11.50
2023-04-18T11:55:02.917Z,9.50
2023-04-18T11:56:02.935Z,9.40
2023-04-18T11:57:02.918Z,9.40
2023-04-18T11:58:02.868Z,8.90
2023-04-18T11:59:02.899Z,9.70
2023-04-18T12:00:02.846Z,10.50
2023-04-18T12:01:02.855Z,9.10
2023-04-18T12:02:15.683Z,9.70
2023-04-18T12:03:04.040Z,9.40
2023-04-18T12:04:03.244Z,9.90
2023-04-18T12:05:03.252Z,9.90
2023-04-18T12:06:02.872Z,9.30
2023-04-18T12:07:02.813Z,9.40
2023-04-18T12:08:02.747Z,13.90
2023-04-18T12:09:02.751Z,8.40
2023-04-18T12:10:02.877Z,8.50
2023-04-18T12:11:02.731Z,9.70
2023-04-18T12:12:02.743Z,9.30
2023-04-18T12:13:02.728Z,10.80
2023-04-18T12:14:04.097Z,9.30
2023-04-18T12:15:02.693Z,8.30
2023-04-18T12:16:02.805Z,9.00
2023-04-18T12:17:02.660Z,9.40
2023-04-18T12:18:02.735Z,7.70
2023-04-18T12:19:02.673Z,9.50
2023-04-18T12:20:02.636Z,10.00
2023-04-18T12:21:02.654Z,10.40
2023-04-18T12:22:02.616Z,8.40
2023-04-18T12:23:02.589Z,9.20
2023-04-18T12:24:02.644Z,8.50
2023-04-18T12:25:02.597Z,8.10
2023-04-18T12:26:02.579Z,8.20
2023-04-18T12:27:02.575Z,11.50
2023-04-18T12:28:03.196Z,9.80
2023-04-18T12:29:02.560Z,8.40
2023-04-18T12:30:02.526Z,9.60
2023-04-18T12:31:02.572Z,8.40
2023-04-18T12:32:02.631Z,10.40
2023-04-18T12:33:02.523Z,8.90
2023-04-18T12:34:02.471Z,8.70
2023-04-18T12:35:02.471Z,8.80
2023-04-18T12:36:02.466Z,9.00
2023-04-18T12:37:02.417Z,8.80
2023-04-18T12:38:02.454Z,10.30
2023-04-18T12:39:02.425Z,8.20
2023-04-18T12:40:02.395Z,9.10
2023-04-18T12:41:02.474Z,12.40
2023-04-18T12:42:02.432Z,11.40
2023-04-18T12:43:03.709Z,10.30
2023-04-18T12:44:02.362Z,9.80
2023-04-18T12:45:02.326Z,9.20
2023-04-18T12:46:02.360Z,9.60
2023-04-18T12:47:02.453Z,9.30
2023-04-18T12:48:02.344Z,10.10
2023-04-18T12:49:02.292Z,9.00
2023-04-18T12:50:02.270Z,8.80
2023-04-18T12:51:02.310Z,9.10
2023-04-18T12:52:02.268Z,8.80
2023-04-18T12:53:02.245Z,8.50
2023-04-18T12:54:02.250Z,9.20
2023-04-18T12:55:02.207Z,10.80
2023-04-18T12:56:02.347Z,13.20
2023-04-18T12:57:02.181Z,8.50
2023-04-18T12:58:02.207Z,10.30
2023-04-18T12:59:02.183Z,8.70
2023-04-18T13:00:02.160Z,8.90
2023-04-18T13:01:02.222Z,9.00
2023-04-18T13:02:02.322Z,8.70
2023-04-18T13:03:02.520Z,9.40
2023-04-18T13:04:11.960Z,8.50
2023-04-18T13:05:03.128Z,9.30
2023-04-18T13:06:02.073Z,8.50
2023-04-18T13:07:02.079Z,10.50
2023-04-18T13:08:15.307Z,9.10
2023-04-18T13:09:03.049Z,8.70
2023-04-18T13:10:02.060Z,9.60
2023-04-18T13:11:02.116Z,9.10